Time;durP1;ratioP1;P1;durP2;ratioP2;P2;SDS_P1;SDS_P2;PMS_P1;PMS_P2;Temp;Humidity;BMP_temperature;BMP_pressure;BME280_temperature;BME280_humidity;BME280_pressure;Samples;Min_cycle;Max_cycle;Signal;HPM_P1;HPM_P2
2021/12/09 00:01:41;;;;;;;60.27;21.77;;;-4.90;99.90;;;;;;4940564;29;20305;-79
2021/12/09 00:04:12;;;;;;;48.97;21.40;;;-3.70;99.90;;;;;;4923367;29;20715;-79
2021/12/09 00:06:39;;;;;;;42.33;16.40;;;-4.90;99.90;;;;;;4957794;29;20238;-79
2021/12/09 00:09:08;;;;;;;37.90;16.00;;;-4.90;99.90;;;;;;4941115;29;20192;-78
2021/12/09 00:11:42;;;;;;;53.67;21.13;;;-4.80;99.90;;;;;;4958590;29;20207;-78
2021/12/09 00:14:10;;;;;;;42.83;18.37;;;-4.90;99.90;;;;;;4940733;29;20218;-79
2021/12/09 00:16:37;;;;;;;45.83;18.77;;;-3.70;99.90;;;;;;4957537;29;20664;-78
2021/12/09 00:19:02;;;;;;;47.33;18.27;;;-3.30;99.90;;;;;;4957718;29;20262;-79
2021/12/09 00:21:28;;;;;;;37.03;15.80;;;-4.80;99.90;;;;;;4924431;29;20274;-78
2021/12/09 00:23:54;;;;;;;38.47;18.77;;;-3.50;99.90;;;;;;4957150;29;20190;-78
2021/12/09 00:26:20;;;;;;;43.43;17.93;;;-4.00;99.90;;;;;;4940346;29;20242;-79
2021/12/09 00:28:45;;;;;;;35.90;17.20;;;-4.90;99.90;;;;;;4957297;29;20211;-78
2021/12/09 00:31:12;;;;;;;42.47;17.17;;;-4.80;99.90;;;;;;4957281;29;20715;-79
2021/12/09 00:33:43;;;;;;;41.60;17.83;;;-3.80;99.90;;;;;;4940737;29;20396;-79
2021/12/09 00:36:09;;;;;;;38.40;15.70;;;-4.00;99.90;;;;;;4925073;29;20590;-78
2021/12/09 00:38:41;;;;;;;39.60;17.03;;;-4.80;99.90;;;;;;4940154;29;20267;-79
2021/12/09 00:41:10;;;;;;;49.40;19.73;;;-4.80;99.90;;;;;;4925492;29;20172;-78
2021/12/09 00:43:37;;;;;;;36.27;15.47;;;-3.90;99.90;;;;;;4957337;29;20176;-79
2021/12/09 00:46:04;;;;;;;45.87;17.57;;;-4.90;99.90;;;;;;4956386;29;20186;-79
2021/12/09 00:48:30;;;;;;;45.63;18.37;;;-4.00;99.90;;;;;;4940068;29;20211;-79
2021/12/09 00:50:58;;;;;;;45.63;16.87;;;-4.50;99.90;;;;;;4956700;29;20258;-78
2021/12/09 00:53:24;;;;;;;48.93;18.43;;;-3.60;99.90;;;;;;4924742;29;20670;-78
2021/12/09 00:55:50;;;;;;;46.87;18.10;;;-4.80;99.90;;;;;;4956792;29;20222;-79
2021/12/09 00:58:16;;;;;;;42.67;16.33;;;-4.20;99.90;;;;;;4940287;29;20183;-79
2021/12/09 01:00:42;;;;;;;40.43;16.33;;;-2.70;99.90;;;;;;4956845;29;20202;-81
2021/12/09 01:03:08;;;;;;;52.87;24.40;;;-3.00;99.90;;;;;;4939683;29;20240;-78
2021/12/09 01:05:34;;;;;;;37.97;16.60;;;-3.30;99.90;;;;;;4939891;29;20652;-78
2021/12/09 01:07:59;;;;;;;43.53;17.43;;;-4.70;99.90;;;;;;4956443;29;20205;-79
2021/12/09 01:10:26;;;;;;;52.10;21.03;;;-3.60;99.90;;;;;;4939094;29;20189;-79
2021/12/09 01:12:52;;;;;;;43.80;16.90;;;-4.70;99.90;;;;;;4939327;29;20632;-79
2021/12/09 01:15:19;;;;;;;31.50;14.73;;;-4.70;99.90;;;;;;4939403;29;20212;-79
2021/12/09 01:17:46;;;;;;;43.10;15.70;;;-4.70;99.90;;;;;;4923385;29;20234;-83
2021/12/09 01:20:14;;;;;;;40.23;14.80;;;-3.90;99.90;;;;;;4939446;29;20590;-79
2021/12/09 01:22:42;;;;;;;40.83;16.63;;;-3.50;99.90;;;;;;4956754;29;20175;-80
2021/12/09 01:25:16;;;;;;;40.30;16.67;;;-3.70;99.90;;;;;;4939538;29;20185;-79
2021/12/09 01:27:45;;;;;;;39.90;16.77;;;-3.30;99.90;;;;;;4956396;29;20280;-79
2021/12/09 01:30:16;;;;;;;38.87;16.77;;;-4.10;99.90;;;;;;4956319;29;20182;-77
2021/12/09 01:32:48;;;;;;;33.40;15.20;;;-4.70;99.90;;;;;;4956848;29;20212;-78
2021/12/09 01:35:27;;;;;;;33.40;14.47;;;-4.50;99.90;;;;;;4939274;29;20319;-79
2021/12/09 01:37:56;;;;;;;37.50;14.53;;;-2.40;99.90;;;;;;4956180;29;20190;-79
2021/12/09 01:40:24;;;;;;;39.63;16.13;;;-4.70;99.90;;;;;;4940052;29;20274;-79
2021/12/09 01:42:50;;;;;;;47.53;19.27;;;-3.40;99.90;;;;;;4938909;29;20647;-79
2021/12/09 01:45:16;;;;;;;45.33;18.97;;;-2.70;99.90;;;;;;4956163;29;20281;-79
2021/12/09 01:47:42;;;;;;;41.70;17.17;;;-3.70;99.90;;;;;;4939103;29;20655;-78
2021/12/09 01:50:10;;;;;;;40.10;14.83;;;-3.00;99.90;;;;;;4955764;29;20292;-78
2021/12/09 01:52:37;;;;;;;33.83;15.17;;;-4.70;99.90;;;;;;4939084;29;20183;-78
2021/12/09 01:55:05;;;;;;;33.83;14.73;;;-3.10;99.90;;;;;;4955515;29;20264;-78
2021/12/09 01:57:31;;;;;;;40.47;16.60;;;-4.60;99.90;;;;;;4938741;29;20187;-79
2021/12/09 01:59:57;;;;;;;41.83;17.17;;;-4.60;99.90;;;;;;4955584;29;20183;-79
2021/12/09 02:02:23;;;;;;;31.77;13.37;;;-4.00;99.90;;;;;;4938680;29;20194;-79
2021/12/09 02:04:49;;;;;;;38.70;16.53;;;-4.00;99.90;;;;;;4955787;29;20569;-79
2021/12/09 02:07:15;;;;;;;34.50;14.97;;;;;;;;;;4955423;29;20547;-78
2021/12/09 02:09:41;;;;;;;40.23;15.57;;;-4.70;99.90;;;;;;4955657;29;20191;-78
2021/12/09 02:12:07;;;;;;;36.40;17.73;;;-2.50;99.90;;;;;;4955443;29;20202;-78
2021/12/09 02:14:33;;;;;;;39.83;17.00;;;-4.60;99.90;;;;;;4955814;29;20207;-78
2021/12/09 02:16:59;;;;;;;40.80;18.53;;;-2.60;99.90;;;;;;4938217;29;20278;-78
2021/12/09 02:19:25;;;;;;;36.83;15.67;;;-4.20;99.90;;;;;;4955584;29;20680;-78
2021/12/09 02:21:51;;;;;;;35.43;15.07;;;-4.60;99.90;;;;;;4955034;28;20187;-79
2021/12/09 02:24:17;;;;;;;30.40;15.10;;;-4.20;99.90;;;;;;4922276;29;20197;-78
2021/12/09 02:26:46;;;;;;;40.43;16.60;;;-4.00;99.90;;;;;;4938433;29;20356;-79
2021/12/09 02:29:14;;;;;;;41.60;17.10;;;-4.60;99.90;;;;;;4955250;29;20596;-78
2021/12/09 02:31:42;;;;;;;38.00;16.10;;;-4.60;99.90;;;;;;4938206;29;20712;-79
2021/12/09 02:34:09;;;;;;;38.30;15.60;;;-3.30;99.90;;;;;;4954888;29;20197;-78
2021/12/09 02:36:40;;;;;;;41.43;18.47;;;-3.40;99.90;;;;;;4955637;29;20300;-79
2021/12/09 02:39:07;;;;;;;38.70;15.20;;;-3.40;99.90;;;;;;4937819;29;20623;-79
2021/12/09 02:41:35;;;;;;;29.43;13.73;;;-4.60;99.90;;;;;;4938389;29;20196;-79
2021/12/09 02:44:04;;;;;;;36.87;17.07;;;-3.20;99.90;;;;;;4955019;29;20180;-79
2021/12/09 02:46:36;;;;;;;32.53;14.63;;;-4.60;99.90;;;;;;4938087;29;20186;-79
2021/12/09 02:49:05;;;;;;;36.80;14.00;;;-4.00;99.90;;;;;;4937592;29;20280;-79
2021/12/09 02:51:31;;;;;;;29.47;14.90;;;;;;;;;;4955061;29;20234;-80
2021/12/09 02:53:57;;;;;;;35.13;15.40;;;-4.60;99.90;;;;;;4921676;29;20189;-80
2021/12/09 02:56:22;;;;;;;35.57;16.13;;;-3.70;99.90;;;;;;4922226;29;20558;-80
2021/12/09 02:58:48;;;;;;;39.87;14.50;;;-4.60;99.90;;;;;;4938253;29;20201;-80
2021/12/09 03:01:16;;;;;;;29.87;13.53;;;-4.30;99.90;;;;;;4937588;29;20290;-79
2021/12/09 03:03:52;;;;;;;31.07;13.83;;;-4.50;99.90;;;;;;4937718;29;20179;-79
2021/12/09 03:06:27;;;;;;;34.37;13.83;;;-3.80;99.90;;;;;;4937405;29;20178;-79
2021/12/09 03:08:54;;;;;;;33.47;13.57;;;-4.50;99.90;;;;;;4955172;29;20182;-80
2021/12/09 03:11:21;;;;;;;37.90;16.97;;;-3.40;99.90;;;;;;4937643;29;20312;-80
2021/12/09 03:13:49;;;;;;;35.20;14.87;;;-3.00;99.90;;;;;;4937636;29;20183;-78
2021/12/09 03:16:19;;;;;;;33.73;13.60;;;;;;;;;;4954470;29;20207;-80
2021/12/09 03:18:48;;;;;;;33.30;13.40;;;-4.50;99.90;;;;;;4954632;29;20180;-80
2021/12/09 03:21:19;;;;;;;32.80;15.07;;;-4.50;99.90;;;;;;4937554;29;20234;-79
2021/12/09 03:23:45;;;;;;;28.87;13.80;;;-4.60;99.90;;;;;;4955416;29;20183;-78
2021/12/09 03:26:11;;;;;;;37.50;14.27;;;-4.00;99.90;;;;;;4953040;29;20216;-79
2021/12/09 03:28:36;;;;;;;27.27;13.37;;;-3.00;99.90;;;;;;4935945;29;20180;-79
2021/12/09 03:31:03;;;;;;;29.37;14.23;;;-4.50;99.90;;;;;;4918413;29;20198;-79
2021/12/09 03:33:28;;;;;;;41.83;19.13;;;-4.50;99.90;;;;;;4921650;29;20190;-79
2021/12/09 03:36:00;;;;;;;53.67;20.13;;;-4.00;99.90;;;;;;4922407;29;20215;-79
2021/12/09 03:38:26;;;;;;;39.30;15.70;;;-4.50;99.90;;;;;;4939038;29;20552;-79
2021/12/09 03:40:53;;;;;;;36.60;16.40;;;-3.10;99.90;;;;;;4939378;29;20195;-79
2021/12/09 03:43:18;;;;;;;41.80;14.80;;;-3.50;99.90;;;;;;4921952;29;20184;-79
2021/12/09 03:45:44;;;;;;;42.67;16.50;;;-3.80;99.90;;;;;;4906504;29;20558;-79
2021/12/09 03:48:10;;;;;;;26.20;12.40;;;-3.90;99.90;;;;;;4938872;29;20554;-79
2021/12/09 03:50:37;;;;;;;33.70;15.17;;;-4.40;99.90;;;;;;4922441;29;20276;-79
2021/12/09 03:53:03;;;;;;;36.97;14.20;;;-4.40;99.90;;;;;;4939333;29;20181;-79
2021/12/09 03:55:29;;;;;;;30.80;15.87;;;-4.40;99.90;;;;;;4922117;29;20254;-79
2021/12/09 03:57:55;;;;;;;32.90;13.00;;;-4.40;99.90;;;;;;4939207;29;20220;-79
2021/12/09 04:00:23;;;;;;;51.33;20.47;;;-3.00;99.90;;;;;;4938880;29;20196;-79
2021/12/09 04:02:49;;;;;;;51.83;19.33;;;;;;;;;;4939204;29;20176;-81
2021/12/09 04:05:15;;;;;;;41.67;16.60;;;-4.40;99.90;;;;;;4921740;29;20207;-79
2021/12/09 04:07:41;;;;;;;44.73;17.43;;;-2.50;99.90;;;;;;4938831;29;20180;-80
2021/12/09 04:10:08;;;;;;;31.37;15.60;;;-4.40;99.90;;;;;;4906064;29;20208;-79
2021/12/09 04:12:34;;;;;;;45.60;20.13;;;-4.40;99.90;;;;;;4921755;29;20184;-79
2021/12/09 04:15:00;;;;;;;47.40;17.40;;;-2.50;99.90;;;;;;4938742;29;20211;-80
2021/12/09 04:17:26;;;;;;;33.27;13.70;;;-2.80;99.90;;;;;;4921354;29;20377;-80
2021/12/09 04:19:52;;;;;;;32.57;13.77;;;-4.40;99.90;;;;;;4920101;29;20676;-80
2021/12/09 04:22:20;;;;;;;36.63;16.33;;;-3.30;99.90;;;;;;4919847;29;20651;-79
2021/12/09 04:24:47;;;;;;;36.03;15.70;;;-2.50;99.90;;;;;;4937111;29;20195;-79
2021/12/09 04:27:12;;;;;;;43.77;17.57;;;-4.40;99.90;;;;;;4919904;29;20298;-79
2021/12/09 04:29:38;;;;;;;71.60;21.63;;;-3.50;99.90;;;;;;4920270;29;20180;-79
2021/12/09 04:32:04;;;;;;;37.47;15.23;;;-4.40;99.90;;;;;;4937100;29;20561;-80
2021/12/09 04:34:30;;;;;;;83.70;27.80;;;;;;;;;;4919626;29;20282;-80
2021/12/09 04:36:57;;;;;;;43.90;17.80;;;-4.40;99.90;;;;;;4937437;29;20243;-79
2021/12/09 04:39:23;;;;;;;48.63;18.07;;;-3.00;99.90;;;;;;4939023;29;20183;-79
2021/12/09 04:41:48;;;;;;;51.83;20.23;;;-4.30;99.90;;;;;;4906523;29;20188;-79
2021/12/09 04:44:14;;;;;;;55.10;22.50;;;-4.30;99.90;;;;;;4938265;29;20204;-78
2021/12/09 04:46:40;;;;;;;46.83;18.47;;;-4.10;99.90;;;;;;4907026;29;20182;-79
2021/12/09 04:49:06;;;;;;;43.07;17.87;;;-4.30;99.90;;;;;;4939586;29;20192;-79
2021/12/09 04:51:34;;;;;;;43.77;17.73;;;-3.30;99.90;;;;;;4936489;29;20168;-78
2021/12/09 04:54:00;;;;;;;43.10;17.67;;;-4.20;99.90;;;;;;4939446;29;20219;-79
2021/12/09 04:56:26;;;;;;;37.00;17.20;;;-4.20;99.90;;;;;;4955146;29;20212;-79
2021/12/09 04:58:52;;;;;;;34.37;15.70;;;-2.80;99.90;;;;;;4940423;29;20190;-79
2021/12/09 05:01:18;;;;;;;40.00;16.40;;;-4.20;99.90;;;;;;4926765;29;20188;-79
2021/12/09 05:03:47;;;;;;;47.03;19.03;;;-4.20;99.90;;;;;;4919821;29;20275;-81
2021/12/09 05:06:13;;;;;;;44.57;20.23;;;-3.50;99.90;;;;;;4902838;29;20199;-80
2021/12/09 05:08:45;;;;;;;59.77;25.20;;;-4.10;99.90;;;;;;4920186;29;20201;-81
2021/12/09 05:11:16;;;;;;;85.73;29.40;;;-3.60;99.90;;;;;;4959706;29;20259;-83
2021/12/09 05:13:42;;;;;;;54.10;20.77;;;-4.20;99.90;;;;;;4958920;29;20190;-83
2021/12/09 05:16:09;;;;;;;51.23;22.20;;;-4.10;99.90;;;;;;4926784;29;20231;-85
2021/12/09 05:18:38;;;;;;;36.80;16.07;;;-2.70;99.90;;;;;;4950666;29;20200;-81
2021/12/09 05:21:06;;;;;;;45.60;17.03;;;-4.10;99.90;;;;;;4929747;29;20219;-80
2021/12/09 05:23:32;;;;;;;62.97;24.03;;;-2.60;99.90;;;;;;4914106;29;20188;-83
2021/12/09 05:26:01;;;;;;;49.40;19.87;;;;;;;;;;4926460;29;20206;-85
2021/12/09 05:28:32;;;;;;;40.37;17.23;;;-3.80;99.90;;;;;;4942060;29;20231;-81
2021/12/09 05:33:42;;;;;;;34.00;14.80;;;-3.60;99.90;;;;;;4927646;29;20257;-81
2021/12/09 05:36:08;;;;;;;41.72;19.42;;;;;;;;;;4926706;29;20441;-81
2021/12/09 05:38:35;;;;;;;35.00;15.67;;;;;;;;;;4927439;29;20919;-80
2021/12/09 05:41:01;;;;;;;46.97;17.93;;;;;;;;;;4928698;29;20273;-81
2021/12/09 05:43:27;;;;;;;37.47;15.07;;;-3.80;99.90;;;;;;4926190;29;20195;-79
2021/12/09 05:45:54;;;;;;;46.90;17.10;;;;;;;;;;4925863;29;20188;-80
2021/12/09 05:48:20;;;;;;;44.67;15.40;;;;;;;;;;4932524;29;20271;-81
2021/12/09 05:50:46;;;;;;;38.53;15.53;;;;;;;;;;4935429;29;20592;-81
2021/12/09 05:53:12;;;;;;;47.20;18.80;;;;;;;;;;4932691;29;20211;-80
2021/12/09 05:55:43;;;;;;;35.90;16.57;;;;;;;;;;4933121;29;20681;-79
2021/12/09 05:58:11;;;;;;;42.07;17.27;;;-4.00;99.90;;;;;;4934526;29;20289;-79
2021/12/09 06:00:37;;;;;;;39.40;16.67;;;;;;;;;;4931782;29;20283;-79
2021/12/09 06:03:03;;;;;;;45.27;17.33;;;;;;;;;;4932624;29;20279;-79
2021/12/09 06:05:29;;;;;;;40.33;17.23;;;;;;;;;;4933235;29;20222;-79
2021/12/09 06:07:55;;;;;;;54.23;19.27;;;;;;;;;;4936390;29;20212;-80
2021/12/09 06:10:22;;;;;;;52.20;19.80;;;;;;;;;;4936376;29;20180;-79
2021/12/09 06:12:48;;;;;;;38.57;16.33;;;;;;;;;;4936181;29;20699;-79
2021/12/09 06:15:15;;;;;;;41.13;19.00;;;-3.90;99.90;;;;;;4933801;29;20298;-78
2021/12/09 06:17:41;;;;;;;43.40;18.60;;;;;;;;;;4936591;29;20190;-79
2021/12/09 06:20:07;;;;;;;53.73;17.73;;;-4.00;99.90;;;;;;4936204;29;20204;-81
2021/12/09 06:22:33;;;;;;;44.83;18.43;;;;;;;;;;4919326;29;20242;-79
2021/12/09 06:24:59;;;;;;;44.37;18.30;;;;;;;;;;4936423;29;20180;-79
2021/12/09 06:27:25;;;;;;;41.57;17.20;;;;;;;;;;4947278;29;20606;-80
2021/12/09 06:29:51;;;;;;;45.07;18.97;;;;;;;;;;4955640;29;20181;-79
2021/12/09 06:32:17;;;;;;;43.03;18.17;;;;;;;;;;4954968;29;20188;-81
2021/12/09 06:34:43;;;;;;;39.77;17.87;;;;;;;;;;4955138;29;20265;-80
2021/12/09 06:37:09;;;;;;;38.57;15.37;;;;;;;;;;4937990;29;20192;-80
2021/12/09 06:39:35;;;;;;;32.87;15.60;;;;;;;;;;4955219;29;20203;-80
2021/12/09 06:42:02;;;;;;;36.93;16.10;;;;;;;;;;4955186;29;20188;-80
2021/12/09 06:44:28;;;;;;;37.90;15.40;;;;;;;;;;4954943;29;20270;-80
2021/12/09 06:46:55;;;;;;;41.73;17.43;;;;;;;;;;4937497;29;20197;-79
2021/12/09 06:49:22;;;;;;;43.13;17.70;;;-3.90;99.90;;;;;;4954914;29;20177;-79
2021/12/09 06:51:49;;;;;;;45.33;19.17;;;;;;;;;;4954878;29;20191;-79
2021/12/09 06:54:15;;;;;;;43.30;18.03;;;;;;;;;;4936636;29;20247;-79
2021/12/09 06:56:41;;;;;;;45.17;19.23;;;;;;;;;;4937386;29;20191;-78
2021/12/09 06:59:07;;;;;;;41.40;18.93;;;;;;;;;;4955049;29;20201;-80
2021/12/09 07:01:34;;;;;;;33.13;15.93;;;;;;;;;;4955126;29;20212;-79
2021/12/09 07:04:00;;;;;;;39.13;16.53;;;;;;;;;;4937551;29;20182;-80
2021/12/09 07:06:27;;;;;;;36.90;16.07;;;;;;;;;;4937484;29;20184;-80
2021/12/09 07:08:56;;;;;;;44.27;18.47;;;;;;;;;;4954818;29;20630;-79
2021/12/09 07:11:22;;;;;;;50.03;18.80;;;;;;;;;;4954833;29;20272;-79
2021/12/09 07:13:48;;;;;;;47.20;21.67;;;;;;;;;;4954686;29;20246;-79
2021/12/09 07:16:15;;;;;;;38.90;16.90;;;;;;;;;;4937254;29;20214;-79
2021/12/09 07:18:41;;;;;;;42.90;19.03;;;;;;;;;;4937320;29;20196;-79
2021/12/09 07:21:07;;;;;;;41.90;17.10;;;;;;;;;;4937325;29;20192;-79
2021/12/09 07:23:34;;;;;;;36.40;15.57;;;-3.70;99.90;;;;;;4954367;29;20267;-80
2021/12/09 07:26:01;;;;;;;32.17;14.87;;;;;;;;;;4953595;28;20203;-80
2021/12/09 07:28:27;;;;;;;33.47;15.50;;;;;;;;;;4954199;29;20215;-80
2021/12/09 07:30:54;;;;;;;33.83;16.20;;;;;;;;;;4937543;29;20715;-80
2021/12/09 07:33:20;;;;;;;40.57;17.17;;;;;;;;;;4954207;29;20214;-80
2021/12/09 07:35:46;;;;;;;37.80;18.23;;;;;;;;;;4954600;29;20218;-80
2021/12/09 07:38:12;;;;;;;50.13;21.57;;;;;;;;;;4954087;29;20183;-80
2021/12/09 07:40:38;;;;;;;39.13;17.90;;;;;;;;;;4936730;29;20186;-79
2021/12/09 07:43:05;;;;;;;40.63;18.27;;;;;;;;;;4954100;29;20184;-81
2021/12/09 07:45:31;;;;;;;38.77;16.57;;;;;;;;;;4936709;29;20642;-82
2021/12/09 07:47:57;;;;;;;44.07;18.17;;;;;;;;;;4953851;29;20188;-79
2021/12/09 07:50:28;;;;;;;41.67;19.53;;;-3.70;99.90;;;;;;4936757;29;20193;-81
2021/12/09 07:52:54;;;;;;;46.00;19.70;;;;;;;;;;4933899;29;20186;-82
2021/12/09 07:55:22;;;;;;;42.93;18.03;;;-3.60;99.90;;;;;;4925350;29;20295;-80
2021/12/09 07:57:48;;;;;;;46.90;20.17;;;;;;;;;;4918295;29;20191;-80
2021/12/09 08:00:30;;;;;;;49.40;21.70;;;-3.50;99.90;;;;;;4937055;29;20661;-78
2021/12/09 08:02:57;;;;;;;54.57;20.33;;;-3.50;99.90;;;;;;4937316;29;20179;-80
2021/12/09 08:05:24;;;;;;;53.23;21.63;;;-3.50;99.90;;;;;;4954859;29;20191;-81
2021/12/09 08:07:50;;;;;;;49.50;20.27;;;;;;;;;;4921088;29;20283;-80
2021/12/09 08:10:18;;;;;;;45.60;19.90;;;-3.40;99.90;;;;;;4939866;29;20279;-79
2021/12/09 08:12:44;;;;;;;47.40;23.83;;;-3.40;99.90;;;;;;4928549;29;20327;-79
2021/12/09 08:15:11;;;;;;;44.23;19.87;;;-3.30;99.90;;;;;;4953964;29;20278;-84
2021/12/09 08:20:05;;;;;;;51.63;22.67;;;-3.10;99.90;;;;;;4955569;28;20656;-80
2021/12/09 08:22:32;;;;;;;55.90;21.73;;;;;;;;;;4957540;29;20700;-80
2021/12/09 08:24:59;;;;;;;53.87;23.07;;;-3.20;99.90;;;;;;4957385;29;20686;-79
2021/12/09 08:27:26;;;;;;;54.77;23.73;;;-3.20;99.90;;;;;;4946356;29;20684;-79
2021/12/09 08:29:52;;;;;;;50.30;23.10;;;;;;;;;;4917163;29;20204;-80
2021/12/09 08:32:19;;;;;;;58.23;24.23;;;;;;;;;;4923822;29;20189;-79
2021/12/09 08:34:45;;;;;;;53.17;23.93;;;;;;;;;;4910313;29;20205;-80
2021/12/09 08:37:11;;;;;;;55.93;24.10;;;;;;;;;;4902134;29;20263;-81
2021/12/09 08:39:37;;;;;;;50.30;21.93;;;;;;;;;;4928534;29;20185;-80
2021/12/09 08:42:03;;;;;;;55.80;24.33;;;-5.40;99.90;;;;;;4909389;29;20203;-81
2021/12/09 08:44:29;;;;;;;51.40;22.67;;;;;;;;;;4928195;29;20184;-80
2021/12/09 08:46:55;;;;;;;51.47;21.13;;;;;;;;;;4926015;29;20192;-81
2021/12/09 08:49:21;;;;;;;56.60;21.73;;;;;;;;;;4911285;29;20191;-79
2021/12/09 08:51:48;;;;;;;58.40;26.03;;;;;;;;;;4928210;29;20264;-79
2021/12/09 08:54:14;;;;;;;56.33;22.30;;;-2.90;99.90;;;;;;4904994;29;20192;-80
2021/12/09 08:56:40;;;;;;;56.20;24.50;;;;;;;;;;4937577;29;20254;-80
2021/12/09 08:59:06;;;;;;;56.60;22.80;;;;;;;;;;4920402;29;20195;-79
2021/12/09 09:01:33;;;;;;;54.63;22.97;;;-2.70;99.90;;;;;;4937731;29;20181;-79
2021/12/09 09:04:01;;;;;;;58.80;24.43;;;;;;;;;;4920548;29;20192;-79
2021/12/09 09:06:29;;;;;;;56.60;24.57;;;;;;;;;;4920590;29;20556;-79
2021/12/09 09:08:57;;;;;;;61.07;25.10;;;;;;;;;;4920314;29;20587;-80
2021/12/09 09:11:26;;;;;;;59.00;23.57;;;-2.60;99.90;;;;;;4920121;29;20704;-79
2021/12/09 09:13:52;;;;;;;59.30;24.67;;;;;;;;;;4920687;29;20348;-80
2021/12/09 09:16:18;;;;;;;54.43;22.57;;;;;;;;;;4937178;29;20686;-80
2021/12/09 09:18:44;;;;;;;53.83;23.97;;;;;;;;;;4914900;29;20194;-79
2021/12/09 09:21:11;;;;;;;58.43;24.47;;;;;;;;;;4917798;29;20283;-80
2021/12/09 09:23:37;;;;;;;57.50;24.47;;;;;;;;;;4920221;29;20620;-80
2021/12/09 09:26:03;;;;;;;50.10;21.67;;;-2.40;99.90;;;;;;4904732;29;20208;-80
2021/12/09 09:28:29;;;;;;;50.20;20.40;;;-2.20;99.90;;;;;;4921067;29;20227;-79
2021/12/09 09:30:57;;;;;;;57.03;23.50;;;-2.30;99.90;;;;;;4920035;29;20190;-79
2021/12/09 09:33:29;;;;;;;54.17;18.80;;;-2.10;99.90;;;;;;4937174;29;20281;-80
2021/12/09 09:35:55;;;;;;;44.97;19.50;;;;;;;;;;4936579;29;20211;-80
2021/12/09 09:38:23;;;;;;;48.10;20.83;;;-2.50;99.90;;;;;;4918688;29;20217;-79
2021/12/09 09:40:59;;;;;;;48.33;22.57;;;-2.50;99.90;;;;;;4936550;29;20188;-80
2021/12/09 09:44:10;;;;;;;41.47;17.90;;;-2.40;99.90;;;;;;4936485;29;20221;-79
2021/12/09 09:46:23;;;;;;;46.67;18.43;;;-2.50;99.90;;;;;;4931672;29;20197;-82
2021/12/09 09:48:51;;;;;;;44.77;20.23;;;-2.50;99.90;;;;;;4935560;29;20970;-79
2021/12/09 09:51:19;;;;;;;42.73;19.70;;;-2.50;99.90;;;;;;4900531;29;20575;-79
2021/12/09 09:53:45;;;;;;;43.23;20.07;;;;;;;;;;4923214;29;20188;-80
2021/12/09 09:56:13;;;;;;;54.13;23.47;;;-2.50;99.90;;;;;;4936455;29;20216;-79
2021/12/09 09:58:44;;;;;;;53.00;23.63;;;-2.40;99.90;;;;;;4920128;29;20279;-80
2021/12/09 10:01:10;;;;;;;57.90;23.80;;;;;;;;;;4919323;29;20239;-81
2021/12/09 10:03:41;;;;;;;47.17;19.73;;;-2.50;99.90;;;;;;4936827;29;20189;-80
2021/12/09 10:06:07;;;;;;;46.60;19.80;;;;;;;;;;4918857;29;20235;-80
2021/12/09 10:08:33;;;;;;;51.77;18.57;;;-2.60;99.90;;;;;;4918652;29;20538;-79
2021/12/09 10:11:00;;;;;;;104.03;32.03;;;-2.40;99.90;;;;;;4936124;29;20189;-80
2021/12/09 10:13:35;;;;;;;61.43;22.83;;;-2.20;99.90;;;;;;4935934;29;20188;-81
2021/12/09 10:16:07;;;;;;;49.80;19.77;;;-2.40;99.90;;;;;;4935795;29;20225;-80
2021/12/09 10:18:44;;;;;;;51.50;19.30;;;-2.60;99.90;;;;;;4933624;29;20195;-80
2021/12/09 10:21:13;;;;;;;50.30;19.87;;;-2.40;99.90;;;;;;4936158;29;20178;-81
2021/12/09 10:23:42;;;;;;;51.93;19.83;;;-2.50;99.90;;;;;;4935896;29;20263;-82
2021/12/09 10:26:27;;;;;;;49.47;19.90;;;-2.60;99.90;;;;;;4919328;29;20295;-80
2021/12/09 10:29:02;;;;;;;54.17;20.60;;;-2.50;99.90;;;;;;4952361;29;20671;-81
2021/12/09 10:31:44;;;;;;;52.87;21.53;;;-2.50;99.90;;;;;;4937384;29;20194;-80
2021/12/09 10:34:26;;;;;;;54.27;21.13;;;;;;;;;;4953875;29;20184;-81
2021/12/09 10:37:22;;;;;;;58.23;22.47;;;-2.40;99.90;;;;;;4953882;29;20187;-80
2021/12/09 10:39:56;;;;;;;62.53;26.03;;;-2.10;99.90;;;;;;4952698;29;20628;-80
2021/12/09 10:42:28;;;;;;;53.60;25.57;;;-2.40;99.90;;;;;;4936555;29;20184;-80
2021/12/09 10:44:53;;;;;;;55.63;22.57;;;-2.60;99.90;;;;;;4954346;29;20183;-80
2021/12/09 10:47:46;;;;;;;45.60;20.07;;;-2.80;99.90;;;;;;4937283;29;20183;-79
2021/12/09 10:55:58;;;;;;;51.83;20.43;;;-2.60;99.90;;;;;;4952938;29;20310;-79
2021/12/09 10:58:28;;;;;;;48.90;21.33;;;-2.40;99.90;;;;;;4947084;29;20392;-80
2021/12/09 11:01:06;;;;;;;65.77;22.77;;;-2.40;99.90;;;;;;4948532;29;20300;-80
2021/12/09 11:03:37;;;;;;;63.53;24.40;;;-2.60;99.90;;;;;;4944213;29;20632;-81
2021/12/09 11:06:03;;;;;;;63.00;24.70;;;;;;;;;;4944261;29;20177;-80
2021/12/09 11:08:31;;;;;;;62.67;23.27;;;-2.40;99.90;;;;;;4927351;29;20202;-81
2021/12/09 11:11:13;;;;;;;70.90;24.33;;;-2.30;99.90;;;;;;4926930;29;20191;-80
2021/12/09 11:13:42;;;;;;;61.03;22.90;;;-2.20;99.90;;;;;;4943258;29;20178;-79
2021/12/09 11:16:08;;;;;;;57.07;21.07;;;-2.10;99.90;;;;;;4927533;29;20213;-81
2021/12/09 11:18:42;;;;;;;67.00;25.40;;;-2.30;99.90;;;;;;4927146;29;20199;-81
2021/12/09 11:21:09;;;;;;;60.53;22.93;;;;;;;;;;4939634;29;20177;-82
2021/12/09 11:23:39;;;;;;;60.47;24.77;;;-2.30;99.90;;;;;;4927788;29;20232;-80
2021/12/09 11:26:29;;;;;;;64.87;24.03;;;-2.00;99.90;;;;;;4928768;29;20187;-79
2021/12/09 11:29:06;;;;;;;48.57;20.40;;;-2.00;99.90;;;;;;4944551;29;20265;-81
2021/12/09 11:31:37;;;;;;;62.43;22.10;;;-2.10;99.90;;;;;;4944647;29;20326;-81
2021/12/09 11:34:11;;;;;;;56.13;23.33;;;-1.40;99.90;;;;;;4945672;29;20176;-81
2021/12/09 11:37:06;;;;;;;69.13;25.57;;;-1.90;99.90;;;;;;4929371;29;20191;-81
2021/12/09 11:39:34;;;;;;;61.00;23.13;;;;;;;;;;4914560;29;20192;-81
2021/12/09 11:42:23;;;;;;;57.90;24.03;;;-2.20;99.90;;;;;;4943443;29;20545;-81
2021/12/09 11:44:50;;;;;;;56.03;21.50;;;-1.80;99.90;;;;;;4949021;29;20175;-80
2021/12/09 11:47:17;;;;;;;58.80;22.73;;;-2.10;99.90;;;;;;4932169;29;20234;-80
2021/12/09 11:49:44;;;;;;;55.77;23.17;;;;;;;;;;4947500;29;20194;-79
2021/12/09 11:52:12;;;;;;;62.47;24.40;;;-2.20;99.90;;;;;;4947671;29;20262;-80
2021/12/09 11:54:39;;;;;;;71.27;27.70;;;-2.30;99.90;;;;;;4935404;29;20230;-81
2021/12/09 11:57:16;;;;;;;60.90;24.90;;;-1.60;99.90;;;;;;4938992;29;20184;-79
2021/12/09 12:11:27;;;;;;;77.60;33.20;;;-2.20;99.90;;;;;;4941108;29;20194;-81
2021/12/09 12:14:35;;;;;;;79.27;29.03;;;-2.10;99.90;;;;;;4975047;29;20188;-81
2021/12/09 12:17:12;;;;;;;74.97;29.90;;;;;;;;;;4965277;28;20209;-79
2021/12/09 12:19:55;;;;;;;53.37;24.63;;;-2.10;99.90;;;;;;4976628;28;20155;-80
2021/12/09 12:37:54;;;;;;;52.37;22.87;;;-2.20;99.90;;;;;;4972238;28;20205;-82
2021/12/09 12:40:51;;;;;;;45.73;19.17;;;-2.20;99.90;;;;;;4957411;28;20205;-79
2021/12/09 12:43:36;;;;;;;50.97;22.57;;;-2.20;99.90;;;;;;4946824;29;20185;-80
2021/12/09 12:46:34;;;;;;;48.57;23.10;;;-2.20;99.90;;;;;;4938513;29;20693;-81
2021/12/09 12:49:15;;;;;;;51.90;21.30;;;-2.00;99.90;;;;;;4938548;29;20202;-79
2021/12/09 12:51:58;;;;;;;56.97;23.60;;;-2.40;99.90;;;;;;4932232;29;20191;-80
2021/12/09 12:57:15;;;;;;;57.67;28.53;;;-2.20;99.90;;;;;;4948355;29;20201;-80
2021/12/09 12:59:58;;;;;;;80.53;35.70;;;-2.20;99.90;;;;;;4947449;29;20203;-80
2021/12/09 13:10:30;;;;;;;56.27;22.30;;;-2.20;99.90;;;;;;4909188;29;20299;-80
2021/12/09 13:13:28;;;;;;;68.27;33.57;;;-2.20;99.90;;;;;;4937662;29;20183;-80
2021/12/09 13:16:00;;;;;;;71.10;29.43;;;-2.30;99.90;;;;;;4924550;29;20680;-79
2021/12/09 13:21:48;;;;;;;79.80;35.30;;;-2.10;99.90;;;;;;4946673;29;20538;-80
2021/12/09 13:24:25;;;;;;;86.23;36.43;;;-2.30;99.90;;;;;;4953865;29;20254;-79
2021/12/09 13:30:56;;;;;;;80.40;31.90;;;-2.00;99.90;;;;;;4955144;29;20636;-79
2021/12/09 13:49:05;;;;;;;81.07;32.80;;;-1.90;99.90;;;;;;4936352;29;20195;-79
2021/12/09 13:57:04;;;;;;;74.40;27.70;;;-2.10;99.90;;;;;;4936797;29;20197;-79
2021/12/09 13:59:34;;;;;;;73.67;26.87;;;-1.90;99.90;;;;;;4936814;29;20177;-79
2021/12/09 14:02:12;;;;;;;65.53;27.33;;;-2.00;99.90;;;;;;4919717;29;20172;-79
2021/12/09 14:04:38;;;;;;;83.93;32.77;;;-2.30;99.90;;;;;;4936689;29;20187;-79
2021/12/09 14:09:31;;;;;;;70.43;29.00;;;-1.90;99.90;;;;;;4936657;29;20179;-80
2021/12/09 14:11:59;;;;;;;56.83;22.50;;;;;;;;;;4904353;29;20599;-79
2021/12/09 14:14:36;;;;;;;67.27;26.60;;;-2.20;99.90;;;;;;4928683;29;20184;-79
2021/12/09 14:17:07;;;;;;;86.90;32.90;;;-2.10;99.90;;;;;;4939384;29;20186;-78
2021/12/09 14:22:36;;;;;;;96.93;36.70;;;-2.00;99.90;;;;;;4953087;29;20192;-79
2021/12/09 14:25:09;;;;;;;70.40;27.40;;;-2.20;99.90;;;;;;4952812;29;20262;-81
2021/12/09 14:27:35;;;;;;;116.27;44.90;;;-2.40;99.90;;;;;;4937502;29;20589;-79